Time;durP1;ratioP1;P1;durP2;ratioP2;P2;SDS_P1;SDS_P2;PMS_P1;PMS_P2;Temp;Humidity;BMP_temperature;BMP_pressure;BME280_temperature;BME280_humidity;BME280_pressure;Samples;Min_cycle;Max_cycle;Signal;HPM_P1;HPM_P2
2024/02/24 00:01:46;;;;;;;2.22;1.70;;;9.80;82.30;;;;;;4786735;29;20038;-95
2024/02/24 00:04:12;;;;;;;2.25;1.60;;;9.70;82.20;;;;;;4791555;29;20758;-94
2024/02/24 00:06:38;;;;;;;2.53;1.80;;;9.70;82.30;;;;;;4806650;29;20047;-87
2024/02/24 00:09:05;;;;;;;1.73;1.63;;;9.70;82.20;;;;;;4788757;29;20041;-93
2024/02/24 00:11:30;;;;;;;1.92;1.58;;;9.70;82.30;;;;;;4807058;29;20038;-81
2024/02/24 00:13:56;;;;;;;2.10;1.73;;;9.70;82.20;;;;;;4817154;29;20046;-89
2024/02/24 00:16:22;;;;;;;1.88;1.70;;;9.70;82.30;;;;;;4791599;29;20085;-82
2024/02/24 00:18:49;;;;;;;2.10;1.70;;;9.60;82.20;;;;;;4820984;29;20096;-85
2024/02/24 00:21:15;;;;;;;2.13;1.85;;;9.60;82.20;;;;;;4822063;29;20026;-89
2024/02/24 00:23:40;;;;;;;2.00;1.80;;;9.60;82.20;;;;;;4817861;29;20121;-82
2024/02/24 00:26:07;;;;;;;2.10;1.70;;;9.60;82.30;;;;;;4824968;29;20492;-94
2024/02/24 00:28:32;;;;;;;2.13;1.70;;;9.60;82.30;;;;;;4792816;29;20491;-81
2024/02/24 00:30:59;;;;;;;1.90;1.80;;;9.60;82.30;;;;;;4794255;29;20499;-81
2024/02/24 00:33:25;;;;;;;2.80;1.80;;;9.60;82.40;;;;;;4808021;29;20383;-88
2024/02/24 00:35:51;;;;;;;2.33;1.80;;;9.50;82.30;;;;;;4793761;29;20054;-88
2024/02/24 00:38:16;;;;;;;2.40;1.75;;;9.50;82.30;;;;;;4808270;29;20055;-87
2024/02/24 00:40:42;;;;;;;2.33;2.00;;;9.50;82.30;;;;;;4822133;29;20041;-93
2024/02/24 00:43:10;;;;;;;3.13;1.90;;;9.50;82.30;;;;;;4804792;29;20078;-93
2024/02/24 00:45:36;;;;;;;2.55;1.70;;;9.40;82.30;;;;;;4791909;29;20488;-81
2024/02/24 00:48:02;;;;;;;3.28;1.77;;;9.50;82.40;;;;;;4809771;29;20026;-92
2024/02/24 00:50:28;;;;;;;2.20;2.00;;;9.50;82.30;;;;;;4791051;29;20038;-81
2024/02/24 00:52:55;;;;;;;2.08;1.88;;;9.40;82.30;;;;;;4823888;29;20034;-93
2024/02/24 00:55:22;;;;;;;2.17;1.98;;;9.40;82.30;;;;;;4821229;29;20341;-81
2024/02/24 00:57:48;;;;;;;2.88;2.00;;;9.40;82.30;;;;;;4807653;29;20030;-84
2024/02/24 01:00:14;;;;;;;1.77;1.67;;;9.40;82.30;;;;;;4821196;29;20037;-81
2024/02/24 01:02:40;;;;;;;2.80;1.88;;;9.40;82.30;;;;;;4821930;29;20131;-93
2024/02/24 01:05:06;;;;;;;2.70;2.17;;;9.40;82.30;;;;;;4808236;29;20061;-84
2024/02/24 01:07:31;;;;;;;2.33;1.70;;;9.30;82.30;;;;;;4792979;29;20038;-85
2024/02/24 01:10:00;;;;;;;2.45;1.92;;;9.30;82.30;;;;;;4805731;29;20022;-91
2024/02/24 01:12:26;;;;;;;2.50;2.10;;;9.30;82.30;;;;;;4807172;29;20039;-88
2024/02/24 01:14:53;;;;;;;2.63;2.10;;;9.30;82.30;;;;;;4808083;29;20041;-81
2024/02/24 01:17:20;;;;;;;2.65;2.22;;;9.30;82.40;;;;;;4809218;29;20041;-85
2024/02/24 01:19:45;;;;;;;3.22;2.20;;;9.20;82.30;;;;;;4824959;29;20037;-92
2024/02/24 01:22:16;;;;;;;2.55;2.10;;;9.20;82.30;;;;;;4791442;29;20139;-85
2024/02/24 01:24:43;;;;;;;2.42;2.00;;;9.20;82.30;;;;;;4817863;29;20045;-93
2024/02/24 01:27:09;;;;;;;2.33;2.00;;;9.20;82.30;;;;;;4793206;29;20030;-93
2024/02/24 01:29:34;;;;;;;2.10;1.83;;;9.20;82.30;;;;;;4810305;29;20419;-94
2024/02/24 01:32:01;;;;;;;2.28;1.95;;;9.20;82.40;;;;;;4823249;29;20034;-94
2024/02/24 01:34:30;;;;;;;2.22;2.03;;;9.10;82.30;;;;;;4820956;29;20087;-81
2024/02/24 01:36:56;;;;;;;2.13;1.92;;;9.10;82.30;;;;;;4823211;29;20507;-93
2024/02/24 01:39:22;;;;;;;3.03;2.30;;;9.10;82.30;;;;;;4804873;29;20041;-84
2024/02/24 01:41:49;;;;;;;2.15;1.95;;;9.10;82.30;;;;;;4793509;29;20034;-88
2024/02/24 01:44:18;;;;;;;2.70;1.90;;;9.00;82.30;;;;;;4792233;29;20058;-93
2024/02/24 01:46:47;;;;;;;2.47;2.05;;;9.00;82.90;;;;;;4807017;29;20037;-94
2024/02/24 01:49:14;;;;;;;2.30;2.10;;;9.10;82.30;;;;;;4821791;29;20038;-93
2024/02/24 01:51:40;;;;;;;2.80;2.13;;;9.00;82.30;;;;;;4805770;29;20034;-84
2024/02/24 01:54:06;;;;;;;2.53;2.10;;;9.00;82.30;;;;;;4793837;29;20472;-84
2024/02/24 01:56:33;;;;;;;2.38;2.17;;;9.00;82.30;;;;;;4806840;29;20521;-84
2024/02/24 01:58:59;;;;;;;2.90;2.30;;;9.00;82.40;;;;;;4802719;29;20419;-87
2024/02/24 02:01:26;;;;;;;2.40;2.05;;;8.90;82.30;;;;;;4793047;29;20037;-93
2024/02/24 02:03:54;;;;;;;2.67;2.00;;;8.90;82.30;;;;;;4790533;29;20027;-81
2024/02/24 02:06:22;;;;;;;2.08;1.88;;;8.90;82.30;;;;;;4805746;29;20049;-81
2024/02/24 02:08:48;;;;;;;2.28;2.00;;;8.90;82.30;;;;;;4805215;29;20034;-81
2024/02/24 02:11:14;;;;;;;2.25;2.00;;;8.90;82.30;;;;;;4807047;29;20257;-86
2024/02/24 02:13:41;;;;;;;2.97;2.20;;;8.90;82.30;;;;;;4790593;29;20452;-91
2024/02/24 02:16:07;;;;;;;2.72;1.92;;;8.80;82.30;;;;;;4805514;29;20019;-80
2024/02/24 02:18:33;;;;;;;2.05;1.85;;;8.80;82.30;;;;;;4806425;29;20030;-79
2024/02/24 02:20:59;;;;;;;3.92;2.10;;;8.80;82.30;;;;;;4806173;29;20030;-80
2024/02/24 02:23:25;;;;;;;2.00;1.83;;;8.80;82.30;;;;;;4804689;29;20057;-80
2024/02/24 02:25:51;;;;;;;2.35;2.00;;;8.80;82.30;;;;;;4819552;29;20030;-80
2024/02/24 02:28:16;;;;;;;2.70;2.17;;;8.70;82.90;;;;;;4804596;29;20094;-80
2024/02/24 02:30:42;;;;;;;3.15;2.25;;;8.70;82.30;;;;;;4805320;29;20391;-81
2024/02/24 02:33:08;;;;;;;2.40;2.00;;;8.70;82.30;;;;;;4791214;29;20163;-81
2024/02/24 02:35:34;;;;;;;3.38;1.90;;;8.70;82.30;;;;;;4804311;29;20026;-93
2024/02/24 02:38:07;;;;;;;2.45;2.05;;;8.70;82.30;;;;;;4790029;29;20038;-93
2024/02/24 02:40:33;;;;;;;3.40;2.10;;;8.70;82.30;;;;;;4818567;29;20196;-93
2024/02/24 02:42:59;;;;;;;2.28;2.00;;;8.70;82.30;;;;;;4811406;29;20043;-92
2024/02/24 02:45:25;;;;;;;2.17;1.83;;;8.70;82.30;;;;;;4803598;29;20039;-83
2024/02/24 02:47:52;;;;;;;2.20;2.00;;;8.70;82.30;;;;;;4804727;29;20128;-87
2024/02/24 02:50:20;;;;;;;2.35;1.85;;;8.60;82.30;;;;;;4811314;29;20094;-84
2024/02/24 02:52:46;;;;;;;2.30;2.00;;;8.60;82.30;;;;;;4801462;29;20050;-87
2024/02/24 02:55:13;;;;;;;2.45;1.85;;;8.60;82.30;;;;;;4806479;29;20083;-87
2024/02/24 02:57:39;;;;;;;2.42;1.90;;;8.60;82.30;;;;;;4817697;29;20155;-82
2024/02/24 03:00:06;;;;;;;1.90;1.80;;;8.60;82.30;;;;;;4806602;29;20117;-81
2024/02/24 03:02:31;;;;;;;2.00;1.85;;;8.60;82.30;;;;;;4798534;29;20126;-84
2024/02/24 03:04:57;;;;;;;2.78;1.90;;;8.60;82.30;;;;;;4788300;29;20572;-85
2024/02/24 03:07:24;;;;;;;2.00;1.80;;;8.60;82.30;;;;;;4804585;29;20099;-84
2024/02/24 03:09:49;;;;;;;2.13;1.92;;;8.60;82.30;;;;;;4790917;29;20099;-81
2024/02/24 03:12:15;;;;;;;2.33;2.13;;;8.50;82.30;;;;;;4786985;29;20038;-88
2024/02/24 03:14:42;;;;;;;2.67;1.98;;;8.60;82.40;;;;;;4791851;29;20116;-88
2024/02/24 03:17:08;;;;;;;2.00;1.80;;;8.60;82.40;;;;;;4805226;29;20030;-85
2024/02/24 03:19:35;;;;;;;2.05;1.85;;;8.60;82.30;;;;;;4805433;29;20031;-84
2024/02/24 03:22:01;;;;;;;2.33;1.90;;;8.60;82.40;;;;;;4817409;29;20109;-92
2024/02/24 03:24:27;;;;;;;2.15;1.83;;;8.50;82.30;;;;;;4821931;29;20542;-94
2024/02/24 03:26:53;;;;;;;2.90;1.80;;;8.50;82.40;;;;;;4823434;29;20640;-84
2024/02/24 03:29:18;;;;;;;2.00;1.80;;;8.50;82.40;;;;;;4802729;29;20042;-93
2024/02/24 03:31:44;;;;;;;2.47;1.90;;;8.50;82.40;;;;;;4816043;29;20023;-82
2024/02/24 03:34:11;;;;;;;2.00;1.80;;;8.50;82.40;;;;;;4803755;29;20084;-94
2024/02/24 03:36:37;;;;;;;2.40;1.80;;;8.50;82.40;;;;;;4802418;29;20069;-84
2024/02/24 03:39:02;;;;;;;1.77;1.60;;;8.50;82.40;;;;;;4802007;29;20034;-81
2024/02/24 03:41:33;;;;;;;2.03;1.83;;;8.50;82.40;;;;;;4811385;29;20126;-95
2024/02/24 03:43:59;;;;;;;3.15;1.80;;;8.50;82.40;;;;;;4789537;29;20094;-92
2024/02/24 03:46:24;;;;;;;2.00;1.75;;;8.50;82.40;;;;;;4804349;29;20031;-81
2024/02/24 03:48:50;;;;;;;2.83;2.00;;;8.50;82.70;;;;;;4808469;29;20050;-85
2024/02/24 03:51:20;;;;;;;2.00;1.67;;;8.50;82.40;;;;;;4818502;29;20050;-95
2024/02/24 03:53:45;;;;;;;2.28;1.83;;;8.50;82.40;;;;;;4794884;29;20043;-84
2024/02/24 03:56:12;;;;;;;2.17;1.98;;;8.50;82.40;;;;;;4809559;29;20046;-94
2024/02/24 03:58:44;;;;;;;1.80;1.70;;;8.50;82.40;;;;;;4807237;29;20060;-86
2024/02/24 04:01:09;;;;;;;1.90;1.65;;;8.50;82.40;;;;;;4807280;29;20539;-94
2024/02/24 04:03:35;;;;;;;2.47;1.80;;;8.50;82.50;;;;;;4804957;29;20113;-84
2024/02/24 04:06:07;;;;;;;2.03;1.77;;;8.40;82.40;;;;;;4808622;29;20026;-94
2024/02/24 04:08:33;;;;;;;2.20;1.90;;;8.50;82.50;;;;;;4793194;29;20030;-81
2024/02/24 04:11:00;;;;;;;2.67;1.85;;;8.50;82.50;;;;;;4808669;29;20038;-81
2024/02/24 04:13:26;;;;;;;2.03;1.83;;;8.50;82.50;;;;;;4804678;29;20647;-89
2024/02/24 04:15:52;;;;;;;1.90;1.70;;;8.50;82.50;;;;;;4794841;29;20438;-81
2024/02/24 04:18:18;;;;;;;2.08;1.85;;;8.40;82.40;;;;;;4796782;29;20102;-88
2024/02/24 04:20:44;;;;;;;2.00;1.85;;;8.50;82.50;;;;;;4805038;29;20030;-95
2024/02/24 04:23:10;;;;;;;2.40;1.83;;;8.40;82.50;;;;;;4809993;29;20039;-93
2024/02/24 04:25:39;;;;;;;1.80;1.70;;;8.50;82.50;;;;;;4812508;29;20548;-83
2024/02/24 04:28:09;;;;;;;2.70;1.90;;;8.40;82.50;;;;;;4805303;29;20057;-93
2024/02/24 04:30:37;;;;;;;2.17;1.90;;;8.40;82.40;;;;;;4780145;29;20047;-81
2024/02/24 04:33:03;;;;;;;3.80;1.88;;;8.40;82.50;;;;;;4809365;29;21245;-94
2024/02/24 04:35:29;;;;;;;2.03;1.75;;;8.40;82.50;;;;;;4815781;29;20060;-81
2024/02/24 04:37:55;;;;;;;2.47;1.90;;;8.40;82.50;;;;;;4810211;29;20063;-93
2024/02/24 04:40:20;;;;;;;2.03;1.80;;;8.40;82.50;;;;;;4806888;29;20097;-81
2024/02/24 04:42:47;;;;;;;2.10;1.80;;;8.40;82.50;;;;;;4807411;29;20037;-93
2024/02/24 04:45:16;;;;;;;2.03;1.83;;;8.40;82.50;;;;;;4808361;29;20037;-93
2024/02/24 04:47:42;;;;;;;2.05;1.85;;;8.40;82.50;;;;;;4807208;29;20038;-92
2024/02/24 04:50:08;;;;;;;2.08;1.83;;;8.40;82.50;;;;;;4791849;29;20027;-83
2024/02/24 04:52:34;;;;;;;2.33;1.90;;;8.40;82.50;;;;;;4828621;29;20442;-88
2024/02/24 04:55:01;;;;;;;2.15;1.80;;;8.40;82.50;;;;;;4804201;29;20387;-84
2024/02/24 04:57:27;;;;;;;2.15;1.90;;;8.40;82.50;;;;;;4790510;29;20121;-81
2024/02/24 04:59:53;;;;;;;2.25;1.80;;;8.40;82.60;;;;;;4806974;29;20418;-81
2024/02/24 05:02:19;;;;;;;2.20;1.70;;;8.40;82.50;;;;;;4808304;29;20518;-88
2024/02/24 05:04:45;;;;;;;1.92;1.73;;;8.40;82.60;;;;;;4806261;29;20459;-84
2024/02/24 05:07:11;;;;;;;2.03;1.83;;;8.40;82.50;;;;;;4824613;29;20056;-84
2024/02/24 05:09:37;;;;;;;1.92;1.73;;;8.40;82.50;;;;;;4792529;29;20034;-93
2024/02/24 05:12:03;;;;;;;2.05;1.90;;;8.40;82.60;;;;;;4807768;29;20420;-87
2024/02/24 05:14:30;;;;;;;2.78;2.15;;;8.40;82.60;;;;;;4808151;29;20030;-81
2024/02/24 05:16:56;;;;;;;2.20;2.00;;;8.40;82.60;;;;;;4807471;29;20038;-87
2024/02/24 05:19:22;;;;;;;2.38;1.90;;;8.40;82.60;;;;;;4806309;29;20031;-82
2024/02/24 05:21:48;;;;;;;2.17;1.80;;;8.40;82.50;;;;;;4822390;29;20039;-88
2024/02/24 05:24:16;;;;;;;2.47;2.00;;;8.40;82.60;;;;;;4806390;29;20027;-84
2024/02/24 05:26:42;;;;;;;2.03;1.83;;;8.40;82.60;;;;;;4820673;29;20475;-87
2024/02/24 05:29:07;;;;;;;2.20;2.00;;;8.40;82.50;;;;;;4792849;29;20444;-88
2024/02/24 05:31:33;;;;;;;2.25;1.92;;;8.40;82.60;;;;;;4791751;29;20448;-81
2024/02/24 05:34:02;;;;;;;2.92;1.90;;;8.40;82.60;;;;;;4792062;29;20038;-93
2024/02/24 05:36:28;;;;;;;2.10;1.90;;;8.40;82.60;;;;;;4793630;29;20449;-81
2024/02/24 05:38:54;;;;;;;4.15;1.90;;;8.40;82.60;;;;;;4821370;29;20046;-93
2024/02/24 05:41:19;;;;;;;2.95;2.15;;;8.40;82.60;;;;;;4806264;29;20046;-80
2024/02/24 05:43:45;;;;;;;2.10;1.90;;;8.40;82.60;;;;;;4805215;29;20107;-83
2024/02/24 05:46:16;;;;;;;2.88;2.20;;;8.40;82.60;;;;;;4821579;29;20038;-83
2024/02/24 05:48:41;;;;;;;2.55;2.00;;;8.40;82.60;;;;;;4822517;29;20034;-80
2024/02/24 05:51:11;;;;;;;2.65;1.90;;;8.40;82.60;;;;;;4820167;29;20087;-94
2024/02/24 05:53:40;;;;;;;2.20;1.90;;;8.40;82.60;;;;;;4806528;29;20057;-93
2024/02/24 05:56:06;;;;;;;2.67;2.00;;;8.40;82.60;;;;;;4799129;29;20115;-87
2024/02/24 05:58:32;;;;;;;2.10;1.90;;;8.40;82.60;;;;;;4807090;29;20042;-94
2024/02/24 06:01:02;;;;;;;2.63;2.10;;;8.40;82.60;;;;;;4803209;29;20042;-84
2024/02/24 06:03:29;;;;;;;2.10;1.90;;;8.40;82.60;;;;;;4823629;29;20083;-84
2024/02/24 06:05:54;;;;;;;2.00;1.80;;;8.40;82.70;;;;;;4806975;29;20468;-84
2024/02/24 06:08:20;;;;;;;1.83;1.70;;;8.40;82.60;;;;;;4789004;29;20114;-84
2024/02/24 06:10:49;;;;;;;2.55;1.90;;;8.40;82.60;;;;;;4807318;29;20377;-80
2024/02/24 06:13:15;;;;;;;1.77;1.67;;;8.40;82.70;;;;;;4805357;29;20095;-84
2024/02/24 06:15:41;;;;;;;2.42;1.90;;;8.40;82.60;;;;;;4808451;29;20033;-87
2024/02/24 06:18:07;;;;;;;2.28;2.00;;;8.40;82.60;;;;;;4791064;29;20040;-88
2024/02/24 06:20:32;;;;;;;2.20;2.00;;;8.40;82.60;;;;;;4793314;29;20505;-88
2024/02/24 06:22:58;;;;;;;2.55;2.00;;;8.40;82.70;;;;;;4791991;29;20573;-88
2024/02/24 06:25:24;;;;;;;2.33;2.13;;;8.40;82.60;;;;;;4805298;29;20035;-94
2024/02/24 06:27:50;;;;;;;2.20;2.00;;;8.40;82.60;;;;;;4808437;29;20026;-93
2024/02/24 06:30:16;;;;;;;2.78;2.00;;;8.40;82.60;;;;;;4805006;29;20039;-87
2024/02/24 06:32:41;;;;;;;2.20;2.00;;;8.40;82.60;;;;;;4795278;29;20026;-94
2024/02/24 06:35:11;;;;;;;2.28;2.00;;;8.50;82.70;;;;;;4822079;29;20026;-93
2024/02/24 06:37:39;;;;;;;2.03;1.83;;;8.40;82.60;;;;;;4806106;29;20113;-85
2024/02/24 06:40:07;;;;;;;2.17;1.92;;;8.50;82.70;;;;;;4792684;29;20174;-89
2024/02/24 06:42:33;;;;;;;2.00;1.80;;;8.50;82.70;;;;;;4805048;29;20047;-88
2024/02/24 06:44:59;;;;;;;1.80;1.70;;;8.40;82.60;;;;;;4819247;29;20038;-83
2024/02/24 06:47:25;;;;;;;2.30;1.95;;;8.50;82.70;;;;;;4821952;29;20026;-83
2024/02/24 06:49:51;;;;;;;2.20;1.95;;;8.50;82.70;;;;;;4816031;29;20293;-90
2024/02/24 06:52:17;;;;;;;2.60;1.90;;;8.50;82.70;;;;;;4805519;29;20030;-83
2024/02/24 06:54:42;;;;;;;2.35;2.00;;;8.50;82.70;;;;;;4817607;29;20031;-80
2024/02/24 06:57:08;;;;;;;2.20;2.00;;;8.50;82.70;;;;;;4804731;29;20053;-81
2024/02/24 06:59:34;;;;;;;2.53;2.10;;;8.50;82.70;;;;;;4799456;29;20393;-81
2024/02/24 07:02:00;;;;;;;2.60;2.20;;;8.50;82.70;;;;;;4820343;29;20030;-81
2024/02/24 07:04:26;;;;;;;2.47;2.20;;;8.50;82.70;;;;;;4784007;29;20033;-91
2024/02/24 07:06:52;;;;;;;2.20;2.00;;;8.50;82.70;;;;;;4792792;29;20038;-81
2024/02/24 07:09:19;;;;;;;2.22;2.03;;;8.50;82.70;;;;;;4826366;29;20109;-90
2024/02/24 07:11:45;;;;;;;2.50;2.10;;;8.50;82.70;;;;;;4794572;29;20042;-89
2024/02/24 07:14:11;;;;;;;3.00;2.05;;;8.50;82.70;;;;;;4804155;29;20038;-83
2024/02/24 07:16:39;;;;;;;2.75;2.20;;;8.50;82.70;;;;;;4803629;29;20350;-81
2024/02/24 07:19:05;;;;;;;2.58;2.13;;;8.50;82.70;;;;;;4822629;29;20034;-91
2024/02/24 07:21:31;;;;;;;2.20;1.90;;;8.50;82.70;;;;;;4806064;29;20046;-89
2024/02/24 07:23:57;;;;;;;2.80;2.20;;;8.50;82.70;;;;;;4810107;29;20041;-89
2024/02/24 07:26:23;;;;;;;2.50;2.00;;;8.50;82.70;;;;;;4809354;29;20038;-83
2024/02/24 07:28:48;;;;;;;2.60;2.25;;;8.50;82.70;;;;;;4804143;29;21504;-90
2024/02/24 07:31:15;;;;;;;2.58;2.20;;;8.50;82.70;;;;;;4807899;29;20046;-90
2024/02/24 07:33:41;;;;;;;2.30;2.10;;;8.50;82.70;;;;;;4809519;29;20041;-82
2024/02/24 07:36:07;;;;;;;3.08;2.10;;;8.60;82.70;;;;;;4823964;29;20464;-80
2024/02/24 07:38:34;;;;;;;3.70;2.30;;;8.50;82.70;;;;;;4793247;29;20058;-90
2024/02/24 07:41:01;;;;;;;2.78;2.47;;;8.50;82.70;;;;;;4810500;29;20530;-80
2024/02/24 07:43:28;;;;;;;3.17;2.42;;;8.50;82.70;;;;;;4782794;29;20070;-91
2024/02/24 07:45:54;;;;;;;2.95;2.40;;;8.50;82.70;;;;;;4806398;29;20034;-83
2024/02/24 07:48:20;;;;;;;2.83;2.20;;;8.50;82.70;;;;;;4809294;29;20038;-83
2024/02/24 07:50:45;;;;;;;3.03;2.30;;;8.60;82.70;;;;;;4806336;29;20030;-90
2024/02/24 07:53:11;;;;;;;3.22;2.42;;;8.60;82.70;;;;;;4809284;29;20027;-83
2024/02/24 07:55:37;;;;;;;3.25;2.58;;;8.60;82.70;;;;;;4815228;29;20023;-83
2024/02/24 07:58:03;;;;;;;3.15;2.50;;;8.60;82.70;;;;;;4806248;29;20094;-91
2024/02/24 08:00:29;;;;;;;2.83;2.40;;;8.60;82.70;;;;;;4817621;29;20387;-83
2024/02/24 08:02:54;;;;;;;3.17;2.40;;;8.60;82.70;;;;;;4823811;29;20048;-91
2024/02/24 08:05:21;;;;;;;3.08;2.45;;;8.60;82.70;;;;;;4805290;29;20035;-83
2024/02/24 08:07:46;;;;;;;2.90;2.60;;;8.60;82.80;;;;;;4802549;29;20038;-83
2024/02/24 08:10:12;;;;;;;3.10;2.30;;;8.60;82.70;;;;;;4813327;29;20041;-83
2024/02/24 08:12:38;;;;;;;3.20;2.50;;;8.60;82.80;;;;;;4796058;29;20026;-89
2024/02/24 08:15:04;;;;;;;2.63;2.30;;;8.60;82.70;;;;;;4809652;29;20566;-91
2024/02/24 08:17:30;;;;;;;2.97;2.33;;;8.70;82.80;;;;;;4806773;29;20046;-80
2024/02/24 08:19:56;;;;;;;2.58;2.30;;;8.70;82.80;;;;;;4800680;29;20078;-89
2024/02/24 08:22:22;;;;;;;2.80;2.47;;;8.70;82.80;;;;;;4813136;29;20503;-83
2024/02/24 08:24:47;;;;;;;2.83;2.28;;;8.70;82.80;;;;;;4804682;29;20058;-81
2024/02/24 08:27:17;;;;;;;2.40;2.20;;;8.70;82.80;;;;;;4818402;29;20464;-80
2024/02/24 08:29:43;;;;;;;3.30;2.50;;;8.70;82.80;;;;;;4806582;29;20121;-81
2024/02/24 08:32:09;;;;;;;3.83;2.63;;;8.70;82.80;;;;;;4823635;29;21483;-90
2024/02/24 08:34:35;;;;;;;3.03;2.50;;;8.70;82.80;;;;;;4791628;29;20041;-90
2024/02/24 08:37:02;;;;;;;3.17;2.50;;;8.70;82.80;;;;;;4808071;29;20030;-84
2024/02/24 08:39:28;;;;;;;2.75;2.50;;;8.80;82.90;;;;;;4789630;29;20095;-90
2024/02/24 08:41:53;;;;;;;3.70;2.80;;;8.80;82.90;;;;;;4808749;29;20030;-91
2024/02/24 08:44:19;;;;;;;3.00;2.60;;;8.80;82.90;;;;;;4807422;29;20057;-89
2024/02/24 08:46:45;;;;;;;3.75;2.67;;;8.80;82.80;;;;;;4791882;29;20039;-81
2024/02/24 08:49:10;;;;;;;3.83;2.70;;;8.80;82.90;;;;;;4793165;29;20031;-92
2024/02/24 08:51:36;;;;;;;2.35;2.15;;;8.80;82.90;;;;;;4810407;29;20030;-87
2024/02/24 08:54:04;;;;;;;3.55;2.58;;;8.80;82.90;;;;;;4791770;29;20121;-81
2024/02/24 08:56:33;;;;;;;2.75;2.40;;;8.80;82.90;;;;;;4825039;29;20034;-90
2024/02/24 08:58:59;;;;;;;2.90;2.40;;;8.90;82.90;;;;;;4821331;29;20044;-85
2024/02/24 09:01:24;;;;;;;3.75;2.70;;;8.90;82.90;;;;;;4805581;29;20109;-89
2024/02/24 09:03:50;;;;;;;3.53;2.78;;;8.90;82.90;;;;;;4806699;29;20041;-81
2024/02/24 09:06:16;;;;;;;3.08;2.50;;;8.90;82.90;;;;;;4806509;29;20609;-81
2024/02/24 09:08:42;;;;;;;2.42;2.20;;;8.90;82.90;;;;;;4807777;29;20038;-84
2024/02/24 09:11:08;;;;;;;2.78;2.28;;;8.90;82.90;;;;;;4803477;29;20050;-81
2024/02/24 09:13:34;;;;;;;2.80;2.40;;;8.90;82.90;;;;;;4797502;29;20488;-89
2024/02/24 09:16:00;;;;;;;3.85;2.42;;;8.90;83.00;;;;;;4811186;29;20026;-84
2024/02/24 09:18:27;;;;;;;3.20;2.30;;;9.00;83.00;;;;;;4804873;29;20034;-80
2024/02/24 09:20:53;;;;;;;3.13;2.50;;;9.00;83.00;;;;;;4806746;29;20127;-81
2024/02/24 09:23:19;;;;;;;3.60;2.40;;;9.00;82.90;;;;;;4806898;29;20026;-84
2024/02/24 09:25:45;;;;;;;3.13;2.50;;;9.00;82.90;;;;;;4804917;29;20041;-90
2024/02/24 09:28:11;;;;;;;3.58;2.92;;;9.00;82.90;;;;;;4821377;29;20054;-81
2024/02/24 09:30:37;;;;;;;2.58;2.35;;;9.00;82.90;;;;;;4824511;29;20038;-91
2024/02/24 09:33:02;;;;;;;2.95;2.42;;;9.00;82.80;;;;;;4811690;29;20037;-91
2024/02/24 09:35:28;;;;;;;3.42;2.65;;;9.10;82.90;;;;;;4808266;29;20416;-84
2024/02/24 09:37:54;;;;;;;3.72;2.70;;;9.10;82.90;;;;;;4808495;29;20551;-84
2024/02/24 09:40:20;;;;;;;2.75;2.33;;;9.10;82.90;;;;;;4791459;29;20038;-83
2024/02/24 09:42:48;;;;;;;3.88;2.50;;;9.10;82.90;;;;;;4822844;29;20022;-81
2024/02/24 09:45:14;;;;;;;3.13;2.63;;;9.20;82.90;;;;;;4807837;29;20042;-91
2024/02/24 09:47:42;;;;;;;3.08;2.25;;;9.10;82.90;;;;;;4807234;29;20397;-91
2024/02/24 09:50:09;;;;;;;2.88;2.30;;;9.20;82.90;;;;;;4806461;29;20030;-83
2024/02/24 09:52:35;;;;;;;3.05;2.40;;;9.20;82.90;;;;;;4787955;29;20047;-84
2024/02/24 09:55:03;;;;;;;2.75;2.28;;;9.20;82.90;;;;;;4808550;29;20033;-92
2024/02/24 09:57:32;;;;;;;3.88;2.60;;;9.20;82.90;;;;;;4804856;29;20035;-92
2024/02/24 09:59:58;;;;;;;2.67;2.35;;;9.20;82.80;;;;;;4821598;29;20470;-92
2024/02/24 10:02:24;;;;;;;3.20;2.80;;;9.20;82.80;;;;;;4804925;29;20099;-90
2024/02/24 10:04:52;;;;;;;2.92;2.40;;;9.20;82.80;;;;;;4804410;29;20030;-91
2024/02/24 10:07:19;;;;;;;2.58;2.10;;;9.20;82.80;;;;;;4820009;29;20087;-89
2024/02/24 10:09:45;;;;;;;3.38;2.50;;;9.20;82.80;;;;;;4794368;29;20038;-92
2024/02/24 10:12:12;;;;;;;2.90;2.30;;;9.30;82.90;;;;;;4802307;29;20026;-81
2024/02/24 10:14:38;;;;;;;3.40;2.72;;;9.20;82.80;;;;;;4814881;29;20066;-81
2024/02/24 10:17:04;;;;;;;3.78;2.60;;;9.30;82.90;;;;;;4801452;29;20100;-92
2024/02/24 10:19:31;;;;;;;3.05;2.42;;;9.30;82.90;;;;;;4792384;29;20058;-92
2024/02/24 10:22:04;;;;;;;3.20;2.55;;;9.30;82.80;;;;;;4785567;29;20051;-81
2024/02/24 10:24:30;;;;;;;3.15;2.50;;;9.30;82.90;;;;;;4820083;29;20057;-92
2024/02/24 10:27:01;;;;;;;3.03;2.40;;;9.30;82.80;;;;;;4796083;29;20107;-82
2024/02/24 10:29:30;;;;;;;4.55;2.72;;;9.30;82.80;;;;;;4813030;29;20019;-92
2024/02/24 10:32:00;;;;;;;3.75;3.03;;;9.30;82.80;;;;;;4791077;29;20099;-84
2024/02/24 10:34:28;;;;;;;3.55;2.80;;;9.30;82.90;;;;;;4800639;29;20054;-90
2024/02/24 10:36:58;;;;;;;3.05;2.38;;;9.30;82.90;;;;;;4806452;29;20030;-92
2024/02/24 10:39:26;;;;;;;3.55;2.80;;;9.30;82.90;;;;;;4802763;29;20038;-84
2024/02/24 10:41:52;;;;;;;3.55;2.80;;;9.30;82.90;;;;;;4813067;29;20469;-84
2024/02/24 10:44:21;;;;;;;3.47;2.97;;;9.30;82.90;;;;;;4823108;29;20054;-82
2024/02/24 10:46:50;;;;;;;3.35;2.75;;;9.40;83.00;;;;;;4790126;29;20050;-81
2024/02/24 10:49:16;;;;;;;4.55;3.28;;;9.40;82.90;;;;;;4803979;29;21257;-84
2024/02/24 10:51:46;;;;;;;3.92;3.00;;;9.40;82.90;;;;;;4817460;29;20031;-92
2024/02/24 10:54:21;;;;;;;3.88;2.80;;;9.40;82.90;;;;;;4783829;29;20069;-91
2024/02/24 10:56:58;;;;;;;4.97;3.30;;;9.40;82.90;;;;;;4801151;29;20032;-82
2024/02/24 10:59:29;;;;;;;4.30;3.20;;;9.40;82.90;;;;;;4815876;29;20030;-90
2024/02/24 11:01:59;;;;;;;4.10;3.13;;;9.50;82.90;;;;;;4814736;29;20099;-89
2024/02/24 11:04:25;;;;;;;4.10;3.08;;;9.40;82.90;;;;;;4800265;29;20484;-80
2024/02/24 11:06:58;;;;;;;4.65;3.13;;;9.40;82.90;;;;;;4787458;29;20038;-81
2024/02/24 11:09:38;;;;;;;4.07;3.13;;;9.40;82.90;;;;;;4817319;29;20036;-90
2024/02/24 11:12:14;;;;;;;4.05;3.00;;;9.50;82.90;;;;;;4791479;29;20038;-89
2024/02/24 11:14:50;;;;;;;4.30;3.10;;;9.50;82.90;;;;;;4804498;29;20039;-82
2024/02/24 11:17:48;;;;;;;3.92;3.05;;;9.50;82.90;;;;;;4812431;29;20070;-84
2024/02/24 11:20:42;;;;;;;3.95;3.17;;;9.50;82.90;;;;;;4806396;29;20173;-84
2024/02/24 11:23:32;;;;;;;4.25;3.05;;;9.50;82.90;;;;;;4823567;29;20077;-92
2024/02/24 11:26:20;;;;;;;4.82;3.45;;;9.50;82.90;;;;;;4805556;29;20057;-80
2024/02/24 11:28:48;;;;;;;4.60;3.40;;;9.50;82.90;;;;;;4804304;29;20042;-87
2024/02/24 11:31:32;;;;;;;4.25;3.45;;;9.50;82.90;;;;;;4775975;29;20047;-81
2024/02/24 11:34:04;;;;;;;4.25;3.40;;;9.60;82.90;;;;;;4813081;29;20035;-84
2024/02/24 11:36:31;;;;;;;3.83;3.08;;;9.60;82.90;;;;;;4803337;29;20031;-85
2024/02/24 11:38:58;;;;;;;4.50;3.53;;;9.60;82.80;;;;;;4807058;29;20071;-84
2024/02/24 11:41:28;;;;;;;4.07;3.25;;;9.60;82.80;;;;;;4790817;29;20038;-89
2024/02/24 11:43:54;;;;;;;3.78;3.13;;;9.70;82.80;;;;;;4791140;29;20407;-81
2024/02/24 11:46:20;;;;;;;4.57;3.47;;;9.70;82.90;;;;;;4790927;29;20026;-80
2024/02/24 11:48:46;;;;;;;3.88;3.20;;;9.70;82.80;;;;;;4817988;29;20039;-82
2024/02/24 11:51:12;;;;;;;4.68;3.50;;;9.70;82.70;;;;;;4806012;29;20046;-89
2024/02/24 11:53:38;;;;;;;3.80;3.00;;;9.70;82.70;;;;;;4807365;29;20034;-89
2024/02/24 11:56:05;;;;;;;4.75;3.22;;;9.80;82.70;;;;;;4818316;29;20126;-89
2024/02/24 11:58:32;;;;;;;4.63;3.25;;;9.80;82.70;;;;;;4805929;29;20031;-95
2024/02/24 12:01:01;;;;;;;4.38;3.25;;;9.80;82.60;;;;;;4823244;29;20023;-81
2024/02/24 12:03:27;;;;;;;4.18;3.13;;;9.80;82.60;;;;;;4806210;29;20137;-92
2024/02/24 12:06:00;;;;;;;4.13;3.22;;;9.90;82.60;;;;;;4793023;29;20121;-89
2024/02/24 12:08:26;;;;;;;3.53;2.90;;;9.90;82.50;;;;;;4819893;29;20043;-82
2024/02/24 12:10:52;;;;;;;3.85;2.90;;;9.90;82.50;;;;;;4806140;29;20034;-82
2024/02/24 12:13:21;;;;;;;3.45;2.55;;;9.90;82.50;;;;;;4808513;29;20026;-87
2024/02/24 12:15:50;;;;;;;3.78;2.80;;;10.00;82.50;;;;;;4793430;29;20077;-88
2024/02/24 12:18:15;;;;;;;3.90;2.95;;;10.00;82.50;;;;;;4806247;29;20034;-92
2024/02/24 12:20:43;;;;;;;4.13;2.65;;;10.00;82.40;;;;;;4809976;29;20043;-81
2024/02/24 12:23:10;;;;;;;3.83;2.90;;;10.00;82.40;;;;;;4826343;29;20045;-89
2024/02/24 12:25:39;;;;;;;3.53;2.63;;;10.00;82.40;;;;;;4809000;29;20038;-85
2024/02/24 12:28:05;;;;;;;2.47;2.25;;;10.10;82.40;;;;;;4824284;29;20043;-80
2024/02/24 12:30:39;;;;;;;3.53;2.53;;;10.10;82.40;;;;;;4792375;29;20495;-93
2024/02/24 12:33:06;;;;;;;3.38;2.53;;;10.10;82.40;;;;;;4791722;29;20038;-81
2024/02/24 12:35:32;;;;;;;3.22;2.45;;;10.10;82.30;;;;;;4791619;29;20048;-91
2024/02/24 12:37:58;;;;;;;3.28;2.60;;;10.10;82.20;;;;;;4807142;29;20026;-91
2024/02/24 12:40:32;;;;;;;3.13;2.50;;;10.20;82.20;;;;;;4806297;29;20344;-81
2024/02/24 12:42:59;;;;;;;3.20;2.60;;;10.20;82.20;;;;;;4808847;29;20038;-81
2024/02/24 12:45:25;;;;;;;3.13;2.50;;;10.20;82.20;;;;;;4808305;29;20058;-81
2024/02/24 12:47:52;;;;;;;3.70;2.53;;;10.30;82.20;;;;;;4821373;29;20125;-83
2024/02/24 12:50:24;;;;;;;3.45;2.50;;;10.30;82.10;;;;;;4819187;29;20114;-91
2024/02/24 12:52:52;;;;;;;3.80;2.50;;;10.30;82.10;;;;;;4807857;29;20026;-91
2024/02/24 12:55:18;;;;;;;3.60;2.58;;;10.20;81.90;;;;;;4808292;29;20435;-82